Ashby, Massachusetts
Current Conditions -  °F | °C
As of 4:39 PM on Thursday 23 Oct 2014 (Local Time) from KFIT Reporting Station
Light Rain Light Rain  
Wind Chill: 52°   Ceiling: 1300
Heat Index: 52°   Visibility: 3mi
Dew Point: 48°   Wind: 9mph
Humidity: 86%   Direction: 360°N
Pressure: 29.68"   Gusts: 26mph
Location:  42.68°N, 71.82°W
Report Text: KFIT 232039Z AUTO 36008G23KT 3SM -RA BR OVC013 11/09 A2968 RMK AO2 P0002 T01110089
Loading
Personal Weather Stations






























Interactive Weather Map
Tropical Storm Tracking
New forecast layout! Learn more

10-Day Weather Forecast

Advertisements
Track Severe Weather on mobile